Terminal Aerodrome Forecast
Issued by NWS

Home | Current Version | Previous Version | Text Only | Print | Product List | Glossary On
Versions: 1 2 3 4 5 6 7 8 9 10 11 12 13 14 15 16 17
361
FTUS43 KLSX 090529
TAFCPS
TAF
KCPS 090529Z 0906/1006 30012KT P6SM -SN OVC030
      TEMPO 0908/0912 2SM -SN BKN020
     FM091700 31017KT P6SM OVC025
     FM091900 31017KT P6SM BKN035=

USA.gov is the U.S. government's official web portal to all federal, state and local government web resources and services.